Time;durP1;ratioP1;P1;durP2;ratioP2;P2;SDS_P1;SDS_P2;PMS_P1;PMS_P2;Temp;Humidity;BMP_temperature;BMP_pressure;BME280_temperature;BME280_humidity;BME280_pressure;Samples;Min_cycle;Max_cycle;Signal;HPM_P1;HPM_P2
2023/05/24 00:01:06;;;;;;;7.20;2.65;;;;;;;11.83;100.00;99086.13;5043461;28;20056;-72
2023/05/24 00:03:33;;;;;;;5.95;2.35;;;;;;;11.60;100.00;99061.25;5041594;28;20028;-72
2023/05/24 00:05:59;;;;;;;6.13;2.25;;;;;;;11.60;100.00;99091.06;5050984;28;20017;-73
2023/05/24 00:08:24;;;;;;;7.68;2.17;;;;;;;11.41;100.00;99066.41;5033568;28;20055;-74
2023/05/24 00:10:49;;;;;;;8.55;2.42;;;;;;;11.34;100.00;99072.81;5039832;28;20090;-72
2023/05/24 00:13:15;;;;;;;6.72;2.60;;;;;;;11.12;100.00;99059.41;5039797;28;20033;-73
2023/05/24 00:15:40;;;;;;;11.40;3.00;;;;;;;11.05;100.00;99063.09;5032628;28;20131;-73
2023/05/24 00:18:05;;;;;;;9.25;2.60;;;;;;;10.89;100.00;99051.56;5045283;28;20032;-72
2023/05/24 00:20:31;;;;;;;12.77;3.10;;;;;;;10.93;100.00;99074.50;5039917;28;20040;-73
2023/05/24 00:22:56;;;;;;;6.97;2.45;;;;;;;10.92;100.00;99071.97;5044204;28;20032;-72
2023/05/24 00:25:21;;;;;;;5.88;2.75;;;;;;;10.86;100.00;99078.19;5047737;28;20052;-72
2023/05/24 00:27:47;;;;;;;11.43;2.80;;;;;;;10.67;100.00;99055.38;5024842;28;20602;-74
2023/05/24 00:30:12;;;;;;;10.63;3.00;;;;;;;10.59;100.00;99059.09;5030781;28;20028;-72
2023/05/24 00:32:38;;;;;;;9.75;2.75;;;;;;;10.47;100.00;99049.81;5051204;28;20029;-72
2023/05/24 00:35:03;;;;;;;7.13;3.17;;;;;;;10.44;100.00;99052.94;5050928;28;20387;-73
2023/05/24 00:37:29;;;;;;;8.68;3.03;;;;;;;10.40;100.00;99067.88;5046071;28;20115;-72
2023/05/24 00:39:54;;;;;;;12.25;3.50;;;;;;;10.33;100.00;99072.41;5028999;28;20017;-72
2023/05/24 00:42:19;;;;;;;12.23;3.10;;;;;;;10.24;100.00;99064.41;5048915;28;20036;-74
2023/05/24 00:44:45;;;;;;;8.65;2.80;;;;;;;10.22;100.00;99074.56;5031917;28;20039;-72
2023/05/24 00:47:10;;;;;;;6.75;3.13;;;;;;;10.11;100.00;99064.25;5034159;28;20087;-73
2023/05/24 00:49:35;;;;;;;8.10;2.90;;;;;;;10.03;100.00;99056.28;5018137;28;20017;-73
2023/05/24 00:52:01;;;;;;;7.70;3.22;;;;;;;10.05;100.00;99073.97;5047703;28;20029;-72
2023/05/24 00:54:28;;;;;;;5.10;2.63;;;;;;;10.03;100.00;99064.38;5031733;28;20028;-72
2023/05/24 00:56:55;;;;;;;7.57;2.70;;;;;;;9.97;100.00;99055.19;5029531;28;20023;-72
2023/05/24 00:59:21;;;;;;;12.32;3.33;;;;;;;9.93;100.00;99050.34;5027297;28;20022;-72
2023/05/24 01:01:47;;;;;;;9.25;2.60;;;;;;;10.09;100.00;99060.94;5024277;28;20426;-72
2023/05/24 01:04:12;;;;;;;9.65;3.08;;;;;;;10.15;100.00;99062.03;5042440;28;20036;-74
2023/05/24 01:06:50;;;;;;;8.85;2.65;;;;;;;10.06;100.00;99053.19;5048122;28;20036;-73
2023/05/24 01:09:32;;;;;;;8.90;3.17;;;;;;;10.14;100.00;99065.72;5039430;28;20514;-72
2023/05/24 01:12:10;;;;;;;9.88;3.10;;;;;;;10.22;100.00;99057.50;5048509;28;20548;-72
2023/05/24 01:14:52;;;;;;;9.37;2.83;;;;;;;10.13;100.00;99053.25;5027723;28;20025;-73
2023/05/24 01:17:25;;;;;;;19.05;4.28;;;;;;;10.17;100.00;99058.09;5051879;28;20791;-73
2023/05/24 01:20:05;;;;;;;11.50;2.72;;;;;;;10.17;100.00;99070.78;5035490;28;20021;-73
2023/05/24 01:22:42;;;;;;;13.77;3.55;;;;;;;10.16;100.00;99069.91;5031929;28;20534;-73
2023/05/24 01:25:13;;;;;;;13.05;3.08;;;;;;;10.20;100.00;99063.09;5039188;28;20471;-73
2023/05/24 01:27:39;;;;;;;7.72;3.00;;;;;;;10.14;100.00;99061.19;5035912;28;20017;-75
2023/05/24 01:30:06;;;;;;;12.27;3.45;;;;;;;10.07;100.00;99065.69;5048666;28;20043;-75
2023/05/24 01:32:32;;;;;;;9.10;3.05;;;;;;;10.08;100.00;99072.75;5014139;28;20029;-72
2023/05/24 01:34:57;;;;;;;9.32;3.58;;;;;;;9.93;100.00;99047.66;5025418;28;20404;-73
2023/05/24 01:37:22;;;;;;;8.85;3.17;;;;;;;10.02;100.00;99063.56;5051977;28;20043;-73
2023/05/24 01:39:48;;;;;;;9.13;3.13;;;;;;;10.09;100.00;99063.63;5032685;28;20025;-73
2023/05/24 01:42:19;;;;;;;8.20;3.08;;;;;;;10.13;100.00;99072.19;5030747;28;20021;-73
2023/05/24 01:44:56;;;;;;;6.88;3.03;;;;;;;10.16;100.00;99083.44;5041494;28;20025;-73
2023/05/24 01:47:33;;;;;;;11.35;3.20;;;;;;;10.19;100.00;99080.38;5043029;28;20052;-76
2023/05/24 01:50:05;;;;;;;7.68;3.70;;;;;;;10.24;100.00;99080.63;5055162;28;20025;-72
2023/05/24 01:52:33;;;;;;;11.90;3.10;;;;;;;10.32;100.00;99085.06;5039671;28;20029;-72
2023/05/24 01:55:01;;;;;;;7.63;3.10;;;;;;;10.33;100.00;99086.75;5037105;28;20044;-72
2023/05/24 01:57:27;;;;;;;11.10;3.38;;;;;;;10.27;100.00;99076.66;5042980;28;20434;-73
2023/05/24 01:59:54;;;;;;;7.55;3.45;;;;;;;10.41;100.00;99086.63;5022908;28;20021;-73
2023/05/24 02:02:19;;;;;;;11.93;3.42;;;;;;;10.45;100.00;99076.22;5049916;28;20444;-74
2023/05/24 02:04:45;;;;;;;9.02;3.00;;;;;;;10.47;100.00;99085.00;5024014;28;20032;-73
2023/05/24 02:07:10;;;;;;;10.00;3.25;;;;;;;10.38;100.00;99065.38;5047648;28;20078;-74
2023/05/24 02:09:35;;;;;;;10.48;2.95;;;;;;;10.32;100.00;99063.44;5052785;28;20037;-72
2023/05/24 02:12:01;;;;;;;9.65;3.10;;;;;;;10.33;100.00;99075.09;5051386;28;20025;-73
2023/05/24 02:14:26;;;;;;;8.23;3.60;;;;;;;10.34;100.00;99063.25;5036415;28;20546;-74
2023/05/24 02:16:51;;;;;;;8.98;3.22;;;;;;;10.34;100.00;99074.06;5030442;28;20041;-71
2023/05/24 02:19:17;;;;;;;9.88;3.33;;;;;;;10.22;100.00;99071.88;5029017;28;20017;-73
2023/05/24 02:21:42;;;;;;;6.63;2.85;;;;;;;10.20;100.00;99081.19;5048474;28;21768;-74
2023/05/24 02:24:10;;;;;;;10.98;3.78;;;;;;;10.14;100.00;99082.81;5049430;28;20017;-74
2023/05/24 02:26:36;;;;;;;13.05;3.13;;;;;;;10.10;100.00;99085.06;5034434;28;20025;-73
2023/05/24 02:29:02;;;;;;;10.27;2.97;;;;;;;10.14;100.00;99093.63;5052427;28;20033;-73
2023/05/24 02:31:28;;;;;;;7.53;3.05;;;;;;;10.09;100.00;99087.97;5051927;28;20116;-71
2023/05/24 02:33:57;;;;;;;8.05;3.15;;;;;;;10.10;100.00;99092.34;5018610;28;20066;-72
2023/05/24 02:36:23;;;;;;;6.93;2.60;;;;;;;10.02;100.00;99084.34;5021625;28;20017;-72
2023/05/24 02:38:52;;;;;;;14.55;3.78;;;;;;;9.96;100.00;99091.38;5046170;28;20029;-73
2023/05/24 02:41:17;;;;;;;11.55;3.22;;;;;;;10.05;100.00;99100.19;5038364;28;20562;-75
2023/05/24 02:43:46;;;;;;;13.27;3.72;;;;;;;10.05;100.00;99097.47;5046353;28;20124;-73
2023/05/24 02:46:13;;;;;;;10.05;2.95;;;;;;;10.04;100.00;99093.94;5046878;28;20066;-73
2023/05/24 02:48:39;;;;;;;10.00;3.17;;;;;;;10.05;100.00;99090.19;5043542;28;20545;-73
2023/05/24 02:51:04;;;;;;;13.98;3.50;;;;;;;9.90;100.00;99077.78;5038896;28;20388;-73
2023/05/24 02:53:32;;;;;;;7.43;2.92;;;;;;;9.99;100.00;99080.16;5050697;28;20031;-73
2023/05/24 02:55:59;;;;;;;7.35;3.05;;;;;;;10.06;100.00;99097.31;5034879;28;20029;-73
2023/05/24 02:58:27;;;;;;;12.73;2.92;;;;;;;10.03;100.00;99086.88;5047886;28;20033;-73
2023/05/24 03:00:53;;;;;;;12.65;4.68;;;;;;;10.02;100.00;99092.47;5030296;28;20021;-73
2023/05/24 03:03:18;;;;;;;8.77;3.38;;;;;;;9.90;100.00;99075.91;5025621;28;20033;-73
2023/05/24 03:05:44;;;;;;;10.48;3.50;;;;;;;9.96;100.00;99090.53;5025335;28;20025;-73
2023/05/24 03:08:09;;;;;;;6.97;3.47;;;;;;;9.91;100.00;99084.88;5051073;28;20025;-73
2023/05/24 03:10:34;;;;;;;11.52;3.63;;;;;;;9.92;100.00;99084.66;5047364;28;20090;-73
2023/05/24 03:12:59;;;;;;;14.30;3.40;;;;;;;9.91;100.00;99084.88;5021221;28;20056;-74
2023/05/24 03:15:25;;;;;;;9.77;3.25;;;;;;;9.84;100.00;99080.22;5040871;28;20159;-73
2023/05/24 03:17:50;;;;;;;13.38;3.10;;;;;;;9.85;100.00;99084.63;5049177;28;20037;-73
2023/05/24 03:20:16;;;;;;;11.68;3.45;;;;;;;9.81;100.00;99077.91;5018266;28;20022;-73
2023/05/24 03:22:41;;;;;;;14.93;3.25;;;;;;;9.93;100.00;99093.59;5028714;28;20289;-73
2023/05/24 03:25:07;;;;;;;11.93;3.75;;;;;;;9.85;100.00;99073.81;5038965;28;20028;-73
2023/05/24 03:27:33;;;;;;;12.00;3.72;;;;;;;9.92;100.00;99081.97;5050867;28;20225;-75
2023/05/24 03:29:58;;;;;;;6.97;3.20;;;;;;;9.91;100.00;99074.06;5023826;28;20028;-77
2023/05/24 03:32:23;;;;;;;11.90;3.60;;;;;;;9.88;100.00;99078.81;5029124;28;20020;-79
2023/05/24 03:34:49;;;;;;;9.23;2.70;;;;;;;9.75;100.00;99062.47;5028799;28;20548;-78
2023/05/24 03:37:15;;;;;;;10.05;3.03;;;;;;;9.78;100.00;99070.19;5048042;28;20020;-77
2023/05/24 03:39:40;;;;;;;11.90;3.47;;;;;;;9.88;100.00;99078.81;5022033;28;20482;-77
2023/05/24 03:42:05;;;;;;;7.10;3.15;;;;;;;9.87;100.00;99077.13;5023004;28;20111;-75
2023/05/24 03:44:31;;;;;;;9.55;3.33;;;;;;;9.90;100.00;99085.88;5040623;28;20075;-78
2023/05/24 03:46:56;;;;;;;12.88;3.40;;;;;;;9.84;100.00;99072.09;5022365;28;20052;-79
2023/05/24 03:49:21;;;;;;;5.43;3.22;;;;;;;9.93;100.00;99080.94;5041627;28;20037;-76
2023/05/24 03:51:47;;;;;;;10.75;3.17;;;;;;;9.95;100.00;99069.94;5033358;28;20024;-76
2023/05/24 03:54:12;;;;;;;13.25;3.75;;;;;;;9.97;100.00;99073.28;5027665;28;20024;-76
2023/05/24 03:56:37;;;;;;;8.20;3.58;;;;;;;10.00;100.00;99072.88;5051745;28;20120;-76
2023/05/24 03:59:03;;;;;;;9.60;3.50;;;;;;;10.07;100.00;99073.81;5031592;28;20024;-77
2023/05/24 04:01:32;;;;;;;12.10;3.38;;;;;;;10.15;100.00;99078.25;5036270;28;20044;-81
2023/05/24 04:03:58;;;;;;;13.45;3.65;;;;;;;10.14;100.00;99072.00;5033663;28;20021;-81
2023/05/24 04:06:27;;;;;;;8.75;3.05;;;;;;;10.15;100.00;99070.97;5027541;28;20413;-78
2023/05/24 04:08:59;;;;;;;9.23;2.90;;;;;;;10.24;100.00;99080.63;5032940;28;20086;-78
2023/05/24 04:11:28;;;;;;;13.60;3.42;;;;;;;10.25;100.00;99076.03;5047278;28;20029;-79
2023/05/24 04:13:59;;;;;;;11.30;3.20;;;;;;;10.22;100.00;99062.91;5035325;28;20540;-82
2023/05/24 04:16:25;;;;;;;8.52;2.95;;;;;;;10.31;100.00;99072.59;5059453;28;20027;-81
2023/05/24 04:18:50;;;;;;;8.73;3.10;;;;;;;10.37;100.00;99090.72;5023817;28;20252;-75
2023/05/24 04:21:16;;;;;;;6.95;3.17;;;;;;;10.40;100.00;99073.28;5027952;28;20037;-73
2023/05/24 04:23:41;;;;;;;9.65;2.92;;;;;;;10.39;100.00;99071.63;5034578;28;20051;-79
2023/05/24 04:26:08;;;;;;;9.20;3.15;;;;;;;10.36;100.00;99053.06;5027708;28;20231;-79
2023/05/24 04:28:34;;;;;;;7.68;3.00;;;;;;;10.45;100.00;99062.69;5034328;28;20025;-81
2023/05/24 04:31:00;;;;;;;6.97;2.75;;;;;;;10.54;100.00;99064.25;5045960;28;20052;-84
2023/05/24 04:33:26;;;;;;;11.73;3.17;;;;;;;10.67;100.00;99086.00;5034480;28;20449;-79
2023/05/24 04:35:52;;;;;;;13.82;3.85;;;;;;;10.66;100.00;99072.63;5027786;28;20033;-77
2023/05/24 04:38:18;;;;;;;9.75;3.03;;;;;;;10.57;100.00;99061.13;5035041;28;20029;-80
2023/05/24 04:40:46;;;;;;;12.25;3.08;;;;;;;10.66;100.00;99069.94;5034872;28;20089;-78
2023/05/24 04:43:11;;;;;;;12.98;3.35;;;;;;;10.75;100.00;99069.59;5028223;28;20033;-78
2023/05/24 04:45:37;;;;;;;11.18;3.28;;;;;;;10.92;100.00;99088.22;5058222;28;20033;-84
2023/05/24 04:48:02;;;;;;;10.55;3.33;;;;;;;10.99;100.00;99091.81;5032446;28;20021;-83
2023/05/24 04:50:28;;;;;;;7.60;3.20;;;;;;;10.86;100.00;99059.25;5045773;28;20119;-83
2023/05/24 04:52:53;;;;;;;10.07;2.88;;;;;;;11.14;100.00;99092.53;5035521;28;20036;-81
2023/05/24 04:55:18;;;;;;;8.90;2.88;;;;;;;11.13;100.00;99093.59;5033266;28;20065;-80
2023/05/24 04:57:44;;;;;;;13.90;3.33;;;;;;;11.13;100.00;99092.72;5036931;28;20021;-78
2023/05/24 05:00:10;;;;;;;8.43;3.10;;;;;;;11.00;100.00;99052.88;5046261;28;20025;-78
2023/05/24 05:02:35;;;;;;;11.15;3.10;;;;;;;11.31;100.00;99086.78;5034744;28;20032;-79
2023/05/24 05:05:01;;;;;;;9.00;2.92;;;;;;;11.40;100.00;99096.41;5037672;28;20055;-77
2023/05/24 05:07:26;;;;;;;8.82;2.72;;;;;;;11.31;100.00;99079.47;5023971;28;20021;-71
2023/05/24 05:09:51;;;;;;;9.98;2.85;;;;;;;11.49;100.00;99091.66;5046061;28;20024;-80
2023/05/24 05:12:17;;;;;;;7.15;3.10;;;;;;;11.53;100.00;99110.03;5033906;28;20048;-74
2023/05/24 05:14:42;;;;;;;8.55;2.95;;;;;;;11.63;100.00;99096.06;5023952;28;20397;-73
2023/05/24 05:17:07;;;;;;;9.40;3.50;;;;;;;11.70;100.00;99101.53;5029590;28;20041;-74
2023/05/24 05:19:33;;;;;;;11.05;2.92;;;;;;;11.76;100.00;99108.84;5050255;28;20021;-80
2023/05/24 05:21:58;;;;;;;12.52;3.08;;;;;;;11.59;100.00;99084.00;5027403;28;20029;-79
2023/05/24 05:24:23;;;;;;;11.73;2.50;;;;;;;11.83;100.00;99102.41;5048487;28;20029;-71
2023/05/24 05:26:48;;;;;;;13.60;3.15;;;;;;;11.89;100.00;99091.81;5067200;28;20083;-80
2023/05/24 05:29:14;;;;;;;9.52;2.70;;;;;;;11.87;100.00;99077.63;5037924;28;20125;-71
2023/05/24 05:31:39;;;;;;;10.15;3.80;;;;;;;11.93;100.00;99093.09;5032570;28;20039;-71
2023/05/24 05:34:08;;;;;;;17.75;3.10;;;;;;;12.03;100.00;99093.53;5048198;28;20025;-71
2023/05/24 05:36:39;;;;;;;12.88;2.75;;;;;;;11.89;100.00;99081.78;5053690;28;20039;-72
2023/05/24 05:39:04;;;;;;;10.68;2.95;;;;;;;11.83;100.00;99066.31;5055116;28;20029;-71
2023/05/24 05:41:30;;;;;;;9.98;3.15;;;;;;;11.97;100.00;99094.34;5032300;28;20504;-72
2023/05/24 05:43:55;;;;;;;12.95;2.72;;;;;;;11.88;100.00;99068.47;5039112;28;20097;-72
2023/05/24 05:46:21;;;;;;;11.10;2.95;;;;;;;11.88;100.00;99077.44;5041911;28;20038;-72
2023/05/24 05:48:46;;;;;;;6.93;2.53;;;;;;;11.91;100.00;99071.59;5051095;28;20096;-72
2023/05/24 05:51:12;;;;;;;6.75;2.70;;;;;;;11.98;100.00;99086.00;5048249;28;20079;-78
2023/05/24 05:53:37;;;;;;;14.57;2.92;;;;;;;11.91;100.00;99068.06;5031301;28;20029;-78
2023/05/24 05:56:02;;;;;;;20.45;3.17;;;;;;;11.87;100.00;99075.78;5037569;28;20017;-78
2023/05/24 05:58:27;;;;;;;11.90;2.97;;;;;;;12.06;100.00;99088.53;5042617;28;20029;-77
2023/05/24 06:00:53;;;;;;;10.18;3.55;;;;;;;12.02;100.00;99070.97;5026428;28;20013;-75
2023/05/24 06:03:18;;;;;;;10.88;2.88;;;;;;;12.24;100.00;99085.22;5047255;28;20021;-74
2023/05/24 06:05:43;;;;;;;15.45;3.08;;;;;;;12.36;100.00;99098.97;5025774;28;20029;-75
2023/05/24 06:08:08;;;;;;;14.23;3.03;;;;;;;12.46;100.00;99104.84;5043310;28;20384;-76
2023/05/24 06:10:34;;;;;;;14.85;2.72;;;;;;;12.37;100.00;99078.97;5034944;28;20028;-74
2023/05/24 06:13:01;;;;;;;12.27;2.80;;;;;;;12.68;100.00;99104.63;5035271;28;20028;-76
2023/05/24 06:15:27;;;;;;;11.73;3.30;;;;;;;12.64;100.00;99096.06;5036570;28;20494;-77
2023/05/24 06:17:53;;;;;;;14.48;3.47;;;;;;;12.71;100.00;99104.22;5040267;28;20029;-81
2023/05/24 06:20:19;;;;;;;15.20;2.70;;;;;;;12.80;100.00;99093.97;5039528;28;20025;-82
2023/05/24 06:22:45;;;;;;;8.23;2.72;;;;;;;12.96;100.00;99095.41;5035741;28;20646;-75
2023/05/24 06:25:13;;;;;;;8.23;2.88;;;;;;;13.07;100.00;99083.88;5052231;28;20487;-77
2023/05/24 06:27:38;;;;;;;9.93;2.83;;;;;;;13.40;100.00;99104.75;5038814;28;20116;-77
2023/05/24 06:30:05;;;;;;;9.27;3.30;;;;;;;13.55;100.00;99106.16;5033817;28;20461;-75
2023/05/24 06:32:31;;;;;;;10.13;3.17;;;;;;;13.52;100.00;99103.03;5037042;28;20056;-78
2023/05/24 06:34:56;;;;;;;8.25;2.75;;;;;;;13.53;100.00;99091.09;5054890;28;20467;-76
2023/05/24 06:37:24;;;;;;;10.88;3.00;;;;;;;13.66;100.00;99101.91;5036727;28;20056;-77
2023/05/24 06:39:49;;;;;;;9.20;2.60;;;;;;;13.73;100.00;99105.44;5037402;28;20029;-83
2023/05/24 06:42:14;;;;;;;6.93;2.55;;;;;;;13.80;100.00;99108.94;5035005;28;20029;-73
2023/05/24 06:44:40;;;;;;;13.38;3.00;;;;;;;13.83;100.00;99115.84;5048579;28;20025;-71
2023/05/24 06:47:05;;;;;;;14.95;3.20;;;;;;;13.78;100.00;99130.09;5050470;28;20116;-71
2023/05/24 06:49:30;;;;;;;11.80;2.80;;;;;;;13.94;100.00;99119.78;5043785;28;20021;-72
2023/05/24 06:51:57;;;;;;;8.32;2.65;;;;;;;13.80;100.00;99133.41;5030289;28;20069;-72
2023/05/24 06:54:22;;;;;;;11.10;2.65;;;;;;;13.82;100.00;99130.50;5042639;28;20060;-70
2023/05/24 06:56:47;;;;;;;9.45;3.00;;;;;;;13.71;100.00;99115.69;5022776;28;20474;-75
2023/05/24 06:59:13;;;;;;;13.95;3.35;;;;;;;13.85;100.00;99137.41;5027638;28;20754;-76
2023/05/24 07:01:41;;;;;;;12.02;2.72;;;;;;;13.82;100.00;99141.38;5034583;28;20052;-72
2023/05/24 07:04:07;;;;;;;10.33;2.83;;;;;;;14.05;100.00;99123.69;5027285;28;20045;-76
2023/05/24 07:06:33;;;;;;;8.80;3.00;;;;;;;13.99;100.00;99128.09;5042539;28;20053;-75
2023/05/24 07:08:59;;;;;;;9.85;2.72;;;;;;;13.95;100.00;99118.72;5025398;28;20028;-75
2023/05/24 07:11:24;;;;;;;10.60;3.70;;;;;;;13.68;100.00;99134.34;5052243;28;20044;-75
2023/05/24 07:13:49;;;;;;;11.40;2.85;;;;;;;13.60;100.00;99154.44;5021464;28;20108;-72
2023/05/24 07:16:15;;;;;;;13.63;2.78;;;;;;;13.64;100.00;99138.53;5030191;28;20032;-73
2023/05/24 07:18:40;;;;;;;7.97;2.58;;;;;;;13.96;100.00;99137.56;5049140;28;20021;-72
2023/05/24 07:21:06;;;;;;;14.57;4.03;;;;;;;14.05;100.00;99157.19;5023253;28;20029;-74
2023/05/24 07:23:31;;;;;;;11.68;3.08;;;;;;;13.82;100.00;99139.47;5049828;28;20028;-75
2023/05/24 07:25:56;;;;;;;9.48;3.00;;;;;;;13.69;100.00;99146.88;5053386;28;20020;-75
2023/05/24 07:28:21;;;;;;;10.55;2.58;;;;;;;13.71;100.00;99164.66;5061303;28;20017;-75
2023/05/24 07:30:47;;;;;;;7.43;2.67;;;;;;;13.76;100.00;99153.97;5056608;28;20458;-77
2023/05/24 07:33:13;;;;;;;13.13;3.35;;;;;;;13.81;100.00;99156.03;5049207;28;20033;-76
2023/05/24 07:35:38;;;;;;;11.13;2.92;;;;;;;14.04;100.00;99152.75;5038796;28;20036;-70
2023/05/24 07:38:03;;;;;;;10.48;2.45;;;;;;;14.09;100.00;99158.41;5026209;28;20360;-69
2023/05/24 07:40:29;;;;;;;13.68;2.80;;;;;;;14.32;100.00;99159.75;5051506;28;20024;-68
2023/05/24 07:42:54;;;;;;;7.47;2.90;;;;;;;14.41;100.00;99166.59;5050627;28;20076;-70
2023/05/24 07:45:19;;;;;;;14.30;3.13;;;;;;;14.43;100.00;99159.03;5042431;28;20095;-70
2023/05/24 07:47:45;;;;;;;11.13;2.85;;;;;;;14.73;100.00;99166.63;5046160;28;20020;-71
2023/05/24 07:50:10;;;;;;;11.52;2.88;;;;;;;14.82;100.00;99157.09;5047232;28;20032;-73
2023/05/24 07:52:37;;;;;;;10.00;3.80;;;;;;;14.71;100.00;99182.34;5038257;28;20487;-77
2023/05/24 07:55:03;;;;;;;17.35;4.05;;;;;;;14.30;100.00;99159.13;5035161;28;20021;-73
2023/05/24 07:57:28;;;;;;;14.23;3.15;;;;;;;14.45;100.00;99178.72;5045389;28;20031;-70
2023/05/24 07:59:54;;;;;;;11.30;3.05;;;;;;;14.53;100.00;99158.59;5041366;28;20108;-71
2023/05/24 08:02:19;;;;;;;10.57;3.03;;;;;;;14.71;100.00;99166.00;5034290;28;20033;-72
2023/05/24 08:04:45;;;;;;;8.55;2.38;;;;;;;15.08;100.00;99183.28;5014611;28;20510;-79
2023/05/24 08:07:10;;;;;;;9.90;2.97;;;;;;;15.10;100.00;99160.22;5018136;28;20026;-77
2023/05/24 08:09:37;;;;;;;11.90;3.35;;;;;;;15.05;100.00;99164.66;5025805;28;20033;-78
2023/05/24 08:12:04;;;;;;;14.55;3.08;;;;;;;15.01;100.00;99166.16;5034305;28;20021;-82
2023/05/24 08:14:29;;;;;;;13.73;3.35;;;;;;;14.97;100.00;99163.06;5033015;28;20225;-79
2023/05/24 08:16:54;;;;;;;11.32;2.85;;;;;;;14.91;100.00;99183.03;5049993;28;20021;-79
2023/05/24 08:19:20;;;;;;;14.88;3.15;;;;;;;14.73;100.00;99148.38;5029257;28;20033;-76
2023/05/24 08:21:45;;;;;;;9.65;2.70;;;;;;;15.12;100.00;99151.81;5044625;28;20154;-77
2023/05/24 08:24:11;;;;;;;9.15;2.55;;;;;;;15.55;100.00;99173.59;5027445;28;20021;-74
2023/05/24 08:26:36;;;;;;;10.02;3.00;;;;;;;15.55;100.00;99170.84;5048213;28;20037;-73
2023/05/24 08:29:03;;;;;;;13.00;3.50;;;;;;;15.10;100.00;99175.72;5048564;28;20021;-81
2023/05/24 08:31:29;;;;;;;11.10;2.92;;;;;;;14.82;100.00;99157.94;5030774;28;20029;-75
2023/05/24 08:33:56;;;;;;;9.05;2.50;;;;;;;14.75;100.00;99150.88;5046936;28;20071;-73
2023/05/24 08:36:21;;;;;;;13.23;3.25;;;;;;;15.10;100.00;99168.38;5048072;28;20017;-72
2023/05/24 08:38:47;;;;;;;11.93;3.90;;;;;;;15.50;100.00;99176.16;5019957;28;20445;-71
2023/05/24 08:41:12;;;;;;;16.63;3.10;;;;;;;15.93;100.00;99185.38;5023264;28;20032;-76
2023/05/24 08:43:38;;;;;;;13.65;3.00;;;;;;;15.93;100.00;99183.47;5025508;28;20028;-76
2023/05/24 08:46:04;;;;;;;10.98;3.15;;;;;;;16.39;100.00;99175.72;5026992;28;20059;-76
2023/05/24 08:48:30;;;;;;;12.65;2.47;;;;;;;16.19;100.00;99173.25;5039665;28;20031;-76
2023/05/24 08:50:57;;;;;;;10.35;3.08;;;;;;;16.36;100.00;99190.66;5029653;28;20028;-75
2023/05/24 08:53:23;;;;;;;14.18;3.08;;;;;;;15.85;100.00;99175.59;5024951;28;20501;-71
2023/05/24 08:55:51;;;;;;;12.50;3.15;;;;;;;15.73;100.00;99169.22;5049498;28;20040;-72
2023/05/24 08:58:17;;;;;;;10.82;3.40;;;;;;;15.42;100.00;99190.09;5041781;28;20035;-71
2023/05/24 09:00:43;;;;;;;11.13;2.95;;;;;;;15.29;100.00;99174.69;5043480;28;20314;-72
2023/05/24 09:03:10;;;;;;;13.68;3.15;;;;;;;15.16;100.00;99171.28;5040232;28;20100;-71
2023/05/24 09:05:36;;;;;;;8.35;2.78;;;;;;;14.86;100.00;99180.13;5045895;28;20417;-71
2023/05/24 09:08:02;;;;;;;9.82;3.15;;;;;;;15.05;100.00;99195.47;5044179;28;20025;-71
2023/05/24 09:10:31;;;;;;;13.15;3.22;;;;;;;15.00;100.00;99202.66;5047372;28;20029;-72
2023/05/24 09:13:00;;;;;;;12.45;3.28;;;;;;;15.17;100.00;99192.00;5034482;28;20387;-73
2023/05/24 09:15:25;;;;;;;13.05;2.83;;;;;;;15.09;100.00;99202.16;5046475;28;20125;-73
2023/05/24 09:17:51;;;;;;;11.98;3.13;;;;;;;15.05;100.00;99203.66;5048948;28;20112;-71
2023/05/24 09:20:17;;;;;;;12.32;2.90;;;;;;;15.10;100.00;99203.81;5048507;28;20470;-69
2023/05/24 09:22:45;;;;;;;7.25;2.63;;;;;;;15.26;100.00;99198.84;5044471;28;20040;-70
2023/05/24 09:25:12;;;;;;;13.43;3.03;;;;;;;15.39;100.00;99190.53;5044418;28;20060;-69
2023/05/24 09:27:38;;;;;;;11.60;3.03;;;;;;;15.54;100.00;99204.66;5026695;28;20044;-69
2023/05/24 09:30:07;;;;;;;13.90;2.88;;;;;;;15.87;100.00;99208.09;5038719;28;20048;-71
2023/05/24 09:32:33;;;;;;;8.05;3.17;;;;;;;15.77;100.00;99208.63;5043137;28;20479;-71
2023/05/24 09:34:58;;;;;;;9.45;3.40;;;;;;;15.97;100.00;99198.31;5027748;28;20040;-71
2023/05/24 09:37:26;;;;;;;8.40;3.10;;;;;;;16.21;100.00;99207.44;5053184;28;20024;-72
2023/05/24 09:39:52;;;;;;;11.80;2.88;;;;;;;16.02;100.00;99205.81;5046863;28;20013;-72
2023/05/24 09:42:23;;;;;;;16.10;3.35;;;;;;;16.10;100.00;99208.22;5047800;28;20033;-71
2023/05/24 09:45:10;;;;;;;11.70;3.05;;;;;;;16.28;100.00;99206.56;5042883;28;20109;-71
2023/05/24 09:47:38;;;;;;;10.43;2.80;;;;;;;15.86;100.00;99212.72;5047976;28;20028;-71
2023/05/24 09:50:05;;;;;;;12.65;3.63;;;;;;;15.82;100.00;99206.03;5042871;28;20151;-71
2023/05/24 09:52:34;;;;;;;16.15;3.20;;;;;;;15.91;100.00;99210.16;5047398;28;20039;-71
2023/05/24 09:55:09;;;;;;;13.27;3.30;;;;;;;15.86;100.00;99210.00;5036260;28;20112;-71
2023/05/24 09:57:34;;;;;;;9.20;2.85;;;;;;;15.83;100.00;99199.53;5043039;28;20037;-71
2023/05/24 10:00:07;;;;;;;11.45;3.20;;;;;;;15.73;100.00;99202.78;5045156;28;20013;-71
2023/05/24 10:02:32;;;;;;;11.02;3.00;;;;;;;15.59;100.00;99208.59;5046504;28;20107;-71
2023/05/24 10:05:02;;;;;;;12.63;3.40;;;;;;;15.61;100.00;99203.75;5047077;28;20125;-71
2023/05/24 10:07:28;;;;;;;13.60;3.35;;;;;;;15.58;100.00;99183.22;5049465;28;20053;-71
2023/05/24 10:09:54;;;;;;;11.40;2.92;;;;;;;16.16;100.00;99195.56;5040923;28;20068;-71
2023/05/24 10:12:21;;;;;;;12.15;2.90;;;;;;;16.29;100.00;99200.84;5043150;28;21009;-71
2023/05/24 10:14:48;;;;;;;13.20;3.50;;;;;;;16.33;100.00;99201.22;5046705;28;20068;-71
2023/05/24 10:17:14;;;;;;;9.63;2.92;;;;;;;16.71;100.00;99186.38;5028002;28;20050;-71
2023/05/24 10:19:40;;;;;;;10.57;2.53;;;;;;;17.09;100.00;99199.69;5040226;28;20065;-75
2023/05/24 10:22:07;;;;;;;13.15;3.15;;;;;;;17.57;100.00;99206.81;5030985;28;20028;-73
2023/05/24 10:24:37;;;;;;;10.50;2.85;;;;;;;17.45;97.01;99187.69;5046388;28;20040;-70
2023/05/24 10:27:08;;;;;;;15.13;3.65;;;;;;;17.78;94.06;99191.69;5043239;28;20033;-68
2023/05/24 10:30:05;;;;;;;9.40;2.70;;;;;;;17.90;93.91;99191.69;5021713;28;20045;-72
2023/05/24 10:32:35;;;;;;;12.52;3.05;;;;;;;18.32;88.36;99177.75;5038692;28;20063;-67
2023/05/24 10:35:04;;;;;;;9.35;2.83;;;;;;;18.83;83.29;99182.25;5020473;28;20030;-73
2023/05/24 10:37:31;;;;;;;13.02;3.25;;;;;;;18.88;83.19;99176.03;5048943;28;20128;-72
2023/05/24 10:39:57;;;;;;;10.98;2.97;;;;;;;18.80;78.49;99180.00;5034267;28;20025;-78
2023/05/24 10:42:23;;;;;;;9.32;2.50;;;;;;;19.10;78.36;99173.41;5027264;28;20021;-72
2023/05/24 10:44:48;;;;;;;12.10;2.53;;;;;;;19.84;73.64;99155.81;5040179;28;20027;-76
2023/05/24 10:47:15;;;;;;;8.70;2.15;;;;;;;20.77;72.17;99173.03;5030398;28;20039;-77
2023/05/24 10:49:53;;;;;;;10.30;2.80;;;;;;;21.10;68.95;99173.06;5031564;28;20498;-81
2023/05/24 10:52:19;;;;;;;11.05;2.58;;;;;;;21.00;65.59;99176.56;5049121;28;20135;-77
2023/05/24 10:55:06;;;;;;;13.85;3.10;;;;;;;20.60;67.66;99177.84;5044226;28;20509;-75
2023/05/24 10:57:32;;;;;;;10.40;2.83;;;;;;;20.74;66.26;99170.00;5042725;28;20028;-77
2023/05/24 10:59:57;;;;;;;6.70;2.08;;;;;;;20.01;66.34;99180.44;5039659;28;20040;-77
2023/05/24 11:02:27;;;;;;;8.68;2.55;;;;;;;21.84;65.24;99174.94;5046510;28;20025;-76
2023/05/24 11:04:52;;;;;;;9.13;2.60;;;;;;;24.99;54.74;99179.50;5022727;28;20025;-76
2023/05/24 11:07:18;;;;;;;13.13;2.50;;;;;;;25.86;51.68;99166.78;5027137;28;20040;-74
2023/05/24 11:09:47;;;;;;;10.77;2.60;;;;;;;27.48;47.16;99157.19;5032856;28;20056;-73
2023/05/24 11:12:16;;;;;;;8.95;2.75;;;;;;;29.22;43.82;99163.72;5031667;28;20482;-70
2023/05/24 11:14:50;;;;;;;11.05;3.20;;;;;;;29.35;41.36;99156.44;5042987;28;20519;-69
2023/05/24 11:17:15;;;;;;;11.00;2.67;;;;;;;29.86;39.71;99153.06;5048235;28;20116;-77
2023/05/24 11:19:46;;;;;;;9.98;2.45;;;;;;;29.43;40.30;99142.53;5052549;28;20164;-75